Brookfield, New York
Current Conditions -  °F | °C
As of 8:06 PM on Wednesday 22 Oct 2014 (Local Time) from KRME Reporting Station
Overcast Overcast  
Wind Chill: 44°   Ceiling: 6500
Heat Index: 48°   Visibility: 10mi
Dew Point: 43°   Wind: 8mph
Humidity: 83%   Direction: 340°NNW
Pressure: 30.09"   Gusts: 16mph
Location:  42.81°N, 75.31°W
Report Text: KRME 230006Z 34007G14KT 10SM SCT020 OVC065 09/06 A3009 RMK AO2 T00890061
Loading
Personal Weather Stations






























Interactive Weather Map
Tropical Storm Tracking
New forecast layout! Learn more

10-Day Weather Forecast

Advertisements
Track Severe Weather on mobile